createdAt,value
2019-01-28T00:03:01.650Z,75.59
2019-01-28T00:05:49.263Z,75.59
2019-01-28T00:08:37.083Z,75.59
2019-01-28T00:11:24.812Z,75.62
2019-01-28T00:14:04.782Z,75.65
2019-01-28T00:16:23.368Z,75.63
2019-01-28T00:18:51.760Z,75.70
2019-01-28T00:21:20.243Z,75.74
2019-01-28T00:23:48.641Z,75.77
2019-01-28T00:26:17.040Z,75.63
2019-01-28T00:31:59.261Z,75.41
2019-01-28T00:34:27.714Z,75.33
2019-01-28T00:36:56.106Z,75.20
2019-01-28T00:39:24.508Z,75.22
2019-01-28T00:44:27.143Z,75.12
2019-01-28T00:49:29.315Z,74.95
2019-01-28T00:54:31.450Z,74.74
2019-01-28T00:56:59.842Z,74.81
2019-01-28T01:02:01.802Z,75.02
2019-01-28T01:04:49.470Z,75.26
2019-01-28T01:07:57.783Z,75.62
2019-01-28T01:10:26.194Z,75.86
2019-01-28T01:12:54.625Z,76.12
2019-01-28T01:18:36.893Z,76.01
2019-01-28T01:24:13.379Z,75.06
2019-01-28T01:26:41.775Z,74.78
2019-01-28T01:29:10.164Z,74.70
2019-01-28T01:31:38.622Z,74.68
2019-01-28T01:34:07.020Z,74.52
2019-01-28T01:36:35.418Z,74.80
2019-01-28T01:41:58.396Z,75.36
2019-01-28T01:44:26.800Z,75.49
2019-01-28T01:46:55.186Z,75.56
2019-01-28T01:49:25.274Z,75.58
2019-01-28T01:51:53.724Z,75.45
2019-01-28T01:54:22.129Z,75.35
2019-01-28T01:56:50.534Z,75.29
2019-01-28T01:59:18.928Z,75.14
2019-01-28T02:01:47.315Z,75.00
2019-01-28T02:04:15.749Z,74.91
2019-01-28T02:06:44.138Z,74.78
2019-01-28T02:09:12.556Z,74.61
2019-01-28T02:12:00.311Z,74.40
2019-01-28T02:14:28.696Z,74.27
2019-01-28T02:16:57.087Z,74.24
2019-01-28T02:19:25.533Z,74.21
2019-01-28T02:21:53.965Z,74.17
2019-01-28T02:24:22.361Z,74.18
2019-01-28T02:29:25.207Z,74.00
2019-01-28T02:34:27.733Z,74.00
2019-01-28T02:39:30.205Z,74.08
2019-01-28T02:41:58.598Z,74.06
2019-01-28T02:47:01.495Z,74.14
2019-01-28T02:49:42.368Z,74.23
2019-01-28T02:52:10.762Z,74.27
2019-01-28T02:54:39.177Z,74.37
2019-01-28T02:57:07.580Z,74.37
2019-01-28T02:59:35.994Z,74.36
2019-01-28T03:07:33.117Z,74.13
2019-01-28T03:12:35.924Z,74.12
2019-01-28T03:15:44.256Z,74.08
2019-01-28T03:18:12.646Z,74.05
2019-01-28T03:20:41.040Z,73.96
2019-01-28T03:25:44.979Z,73.78
2019-01-28T03:28:13.438Z,73.57
2019-01-28T03:30:41.827Z,73.47
2019-01-28T03:33:10.246Z,73.33
2019-01-28T03:35:38.654Z,73.12
2019-01-28T03:38:07.110Z,72.94
2019-01-28T03:40:35.545Z,72.74
2019-01-28T03:43:03.938Z,72.41
2019-01-28T03:45:32.318Z,72.28
2019-01-28T03:48:00.746Z,72.07
2019-01-28T03:50:29.270Z,72.05
2019-01-28T03:52:57.664Z,71.95
2019-01-28T03:58:00.138Z,71.93
2019-01-28T04:05:58.768Z,71.70
2019-01-28T04:08:27.162Z,71.61
2019-01-28T04:10:55.548Z,71.60
2019-01-28T04:13:24.114Z,71.59
2019-01-28T04:15:52.498Z,71.50
2019-01-28T04:18:20.896Z,71.47
2019-01-28T04:23:23.619Z,71.34
2019-01-28T04:25:52.077Z,71.23
2019-01-28T04:28:20.497Z,71.18
2019-01-28T04:30:48.947Z,71.11
2019-01-28T04:33:17.313Z,71.03
2019-01-28T04:35:45.812Z,70.98
2019-01-28T04:38:14.200Z,70.82
2019-01-28T04:40:42.659Z,70.66
2019-01-28T04:43:11.071Z,70.68
2019-01-28T04:45:39.466Z,70.68
2019-01-28T04:48:07.850Z,70.52
2019-01-28T04:50:36.266Z,70.46
2019-01-28T04:53:44.579Z,70.40
2019-01-28T04:56:13.072Z,70.36
2019-01-28T04:58:41.464Z,70.24
2019-01-28T05:01:29.004Z,70.08
2019-01-28T05:03:57.404Z,69.93
2019-01-28T05:06:25.793Z,69.92
2019-01-28T05:09:34.129Z,69.87
2019-01-28T05:14:51.632Z,69.65
2019-01-28T05:17:20.030Z,69.53
2019-01-28T05:19:48.426Z,69.47
2019-01-28T05:24:51.295Z,69.38
2019-01-28T05:27:19.738Z,69.29
2019-01-28T05:29:48.128Z,69.17
2019-01-28T05:32:16.525Z,69.14
2019-01-28T05:34:56.768Z,69.05
2019-01-28T05:40:44.188Z,68.98
2019-01-28T05:43:12.583Z,68.92
2019-01-28T05:45:40.970Z,68.75
2019-01-28T05:48:09.395Z,68.60
2019-01-28T05:50:37.786Z,68.29
2019-01-28T05:53:06.177Z,68.05
2019-01-28T05:55:46.865Z,67.99
2019-01-28T05:58:15.256Z,68.02
2019-01-28T06:03:32.736Z,67.68
2019-01-28T06:06:01.126Z,67.32
2019-01-28T06:08:29.520Z,67.19
2019-01-28T06:13:36.996Z,67.08
2019-01-28T06:16:05.450Z,67.11
2019-01-28T06:18:33.840Z,66.93
2019-01-28T06:21:02.255Z,66.73
2019-01-28T06:23:30.646Z,66.68
2019-01-28T06:25:59.039Z,66.67
2019-01-28T06:28:27.470Z,66.47
2019-01-28T06:30:55.867Z,66.45
2019-01-28T06:33:24.267Z,66.34
2019-01-28T06:35:52.684Z,66.19
2019-01-28T06:38:21.076Z,66.15
2019-01-28T06:40:49.482Z,66.14
2019-01-28T06:43:17.992Z,66.14
2019-01-28T06:45:46.389Z,66.07
2019-01-28T06:48:14.844Z,66.07
2019-01-28T06:50:43.265Z,66.06
2019-01-28T06:53:11.792Z,66.09
2019-01-28T06:55:40.184Z,66.08
2019-01-28T06:58:08.621Z,65.81
2019-01-28T07:00:37.170Z,65.83
2019-01-28T07:03:45.521Z,65.78
2019-01-28T07:06:13.906Z,65.76
2019-01-28T07:08:43.845Z,65.81
2019-01-28T07:11:12.624Z,65.65
2019-01-28T07:13:41.011Z,65.61
2019-01-28T07:16:09.404Z,65.56
2019-01-28T07:18:37.846Z,65.48
2019-01-28T07:21:06.232Z,65.41
2019-01-28T07:23:34.624Z,65.39
2019-01-28T07:26:03.124Z,65.28
2019-01-28T07:28:31.516Z,65.25
2019-01-28T07:30:59.908Z,65.27
2019-01-28T07:33:28.360Z,65.21
2019-01-28T07:35:56.746Z,65.20
2019-01-28T07:38:25.144Z,65.16
2019-01-28T07:40:53.638Z,65.14
2019-01-28T07:43:22.032Z,64.99
2019-01-28T07:45:50.425Z,64.87
2019-01-28T07:48:21.705Z,64.76
2019-01-28T07:50:50.091Z,64.63
2019-01-28T07:53:18.480Z,64.54
2019-01-28T07:55:46.995Z,64.52
2019-01-28T07:58:15.398Z,64.20
2019-01-28T08:00:43.789Z,63.90
2019-01-28T08:03:12.277Z,63.89
2019-01-28T08:05:40.742Z,63.95
2019-01-28T08:08:09.200Z,63.69
2019-01-28T08:10:57.048Z,63.64
2019-01-28T08:13:25.443Z,63.48
2019-01-28T08:15:53.842Z,63.22
2019-01-28T08:18:22.254Z,63.16
2019-01-28T08:20:50.650Z,63.06
2019-01-28T08:23:19.040Z,62.85
2019-01-28T08:28:21.892Z,63.03
2019-01-28T08:30:50.463Z,63.01
2019-01-28T08:33:18.854Z,62.80
2019-01-28T08:35:47.316Z,62.67
2019-01-28T08:38:15.894Z,62.47
2019-01-28T08:40:44.296Z,62.58
2019-01-28T08:43:12.697Z,62.56
2019-01-28T08:45:41.264Z,62.40
2019-01-28T08:48:09.651Z,62.29
2019-01-28T08:50:38.039Z,62.32
2019-01-28T08:53:06.500Z,62.19
2019-01-28T08:55:34.953Z,62.01
2019-01-28T08:58:03.427Z,62.01
2019-01-28T09:01:11.770Z,62.00
2019-01-28T09:03:40.232Z,61.84
2019-01-28T09:06:08.761Z,61.85
2019-01-28T09:08:37.335Z,61.73
2019-01-28T09:11:05.724Z,61.65
2019-01-28T09:13:34.192Z,61.49
2019-01-28T09:16:02.628Z,61.40
2019-01-28T09:18:31.023Z,61.31
2019-01-28T09:20:59.416Z,61.22
2019-01-28T09:26:02.256Z,60.98
2019-01-28T09:28:30.868Z,60.80
2019-01-28T09:30:59.267Z,60.61
2019-01-28T09:33:27.700Z,60.70
2019-01-28T09:35:56.207Z,60.70
2019-01-28T09:38:24.669Z,60.65
2019-01-28T09:40:53.196Z,60.58
2019-01-28T09:43:21.681Z,60.58
2019-01-28T09:45:50.157Z,60.40
2019-01-28T09:48:18.694Z,60.31
2019-01-28T09:50:47.609Z,60.26
2019-01-28T09:53:16.139Z,60.35
2019-01-28T09:55:44.602Z,60.22
2019-01-28T09:58:13.052Z,60.10
2019-01-28T10:00:44.058Z,59.95
2019-01-28T10:03:12.455Z,59.81
2019-01-28T10:05:40.946Z,59.73
2019-01-28T10:08:10.076Z,59.66
2019-01-28T10:10:38.535Z,59.50
2019-01-28T10:13:07.823Z,59.40
2019-01-28T10:15:36.346Z,59.36
2019-01-28T10:18:05.678Z,59.19
2019-01-28T10:20:44.436Z,59.13
2019-01-28T10:23:10.442Z,58.85
2019-01-28T10:25:39.278Z,58.51
2019-01-28T10:28:08.017Z,58.55
2019-01-28T10:30:39.221Z,58.54
2019-01-28T10:33:08.646Z,58.62
2019-01-28T10:35:38.109Z,58.61
2019-01-28T10:38:07.397Z,58.90
2019-01-28T10:40:38.222Z,58.72
2019-01-28T10:43:07.649Z,58.61
2019-01-28T10:45:36.281Z,58.53
2019-01-28T10:48:05.712Z,58.24
2019-01-28T10:50:34.466Z,58.14
2019-01-28T10:53:02.859Z,58.15
2019-01-28T10:55:31.317Z,57.91
2019-01-28T10:57:59.806Z,57.57
2019-01-28T11:00:30.844Z,57.35
2019-01-28T11:02:59.670Z,57.21
2019-01-28T11:05:28.153Z,57.08
2019-01-28T11:07:56.768Z,56.88
2019-01-28T11:10:27.725Z,56.64
2019-01-28T11:12:56.122Z,56.16
2019-01-28T11:15:30.235Z,55.57
2019-01-28T11:18:04.497Z,55.29
2019-01-28T11:20:32.971Z,55.42
2019-01-28T11:23:01.351Z,55.21
2019-01-28T11:25:32.025Z,55.06
2019-01-28T11:28:00.940Z,54.96
2019-01-28T11:30:39.561Z,55.03
2019-01-28T11:33:08.312Z,54.80
2019-01-28T11:35:37.187Z,54.51
2019-01-28T11:38:06.550Z,54.12
2019-01-28T11:40:35.235Z,53.95
2019-01-28T11:43:04.831Z,53.98
2019-01-28T11:45:39.437Z,54.00
2019-01-28T11:48:08.238Z,53.58
2019-01-28T11:50:36.870Z,53.47
2019-01-28T11:53:06.180Z,52.94
2019-01-28T11:55:37.574Z,52.21
2019-01-28T11:58:06.216Z,51.84
2019-01-28T12:00:39.356Z,52.13
2019-01-28T12:03:07.884Z,51.73
2019-01-28T12:05:36.280Z,51.74
2019-01-28T12:08:05.440Z,51.41
2019-01-28T12:10:34.001Z,51.12
2019-01-28T12:13:02.562Z,50.82
2019-01-28T12:15:31.191Z,50.68
2019-01-28T12:17:59.579Z,50.33
2019-01-28T12:20:27.970Z,49.79
2019-01-28T12:22:56.395Z,49.39
2019-01-28T12:25:24.792Z,49.46
2019-01-28T12:27:53.185Z,48.99
2019-01-28T12:30:27.900Z,49.20
2019-01-28T12:32:56.366Z,48.88
2019-01-28T12:35:24.760Z,48.48
2019-01-28T12:37:53.456Z,48.38
2019-01-28T12:40:23.186Z,48.17
2019-01-28T12:42:52.624Z,47.45
2019-01-28T12:45:28.846Z,47.43
2019-01-28T12:47:58.602Z,47.65
2019-01-28T12:50:27.428Z,47.43
2019-01-28T12:52:56.129Z,47.16
2019-01-28T12:55:27.536Z,46.57
2019-01-28T12:57:56.006Z,46.26
2019-01-28T13:00:37.025Z,46.41
2019-01-28T13:03:06.866Z,46.69
2019-01-28T13:05:35.329Z,47.38
2019-01-28T13:08:03.930Z,47.66
2019-01-28T13:10:32.402Z,47.40
2019-01-28T13:13:00.882Z,47.29
2019-01-28T13:15:31.069Z,47.83
2019-01-28T13:17:59.603Z,47.77
2019-01-28T13:20:28.628Z,47.60
2019-01-28T13:22:57.333Z,47.31
2019-01-28T13:25:31.249Z,47.00
2019-01-28T13:27:59.702Z,46.88
2019-01-28T13:30:39.303Z,47.22
2019-01-28T13:33:10.913Z,47.28
2019-01-28T13:35:39.443Z,46.70
2019-01-28T13:38:08.022Z,46.56
2019-01-28T13:40:36.676Z,46.53
2019-01-28T13:43:05.438Z,46.63
2019-01-28T13:45:33.932Z,46.71
2019-01-28T13:48:02.486Z,46.75
2019-01-28T13:50:31.318Z,46.63
2019-01-28T13:52:59.740Z,46.55
2019-01-28T13:55:28.207Z,46.50
2019-01-28T13:57:56.664Z,46.34
2019-01-28T14:00:27.616Z,46.26
2019-01-28T14:02:58.104Z,46.30
2019-01-28T14:05:27.054Z,46.57
2019-01-28T14:07:56.200Z,46.76
2019-01-28T14:10:25.227Z,47.13
2019-01-28T14:12:53.955Z,47.22
2019-01-28T14:15:30.995Z,47.26
2019-01-28T14:17:59.388Z,47.24
2019-01-28T14:20:32.693Z,47.47
2019-01-28T14:23:02.003Z,47.35
2019-01-28T14:25:30.567Z,46.81
2019-01-28T14:27:59.124Z,46.92
2019-01-28T14:30:33.453Z,46.95
2019-01-28T14:33:01.838Z,47.14
2019-01-28T14:35:30.235Z,47.25
2019-01-28T14:37:58.697Z,47.37
2019-01-28T14:40:27.679Z,47.36
2019-01-28T14:42:56.223Z,47.30
2019-01-28T14:45:24.772Z,46.81
2019-01-28T14:47:53.162Z,46.47
2019-01-28T14:50:24.622Z,46.00
2019-01-28T14:52:53.132Z,45.86
2019-01-28T14:55:21.764Z,45.67
2019-01-28T14:57:50.400Z,45.77
2019-01-28T15:00:24.715Z,45.82
2019-01-28T15:02:53.109Z,45.97
2019-01-28T15:05:21.500Z,46.25
2019-01-28T15:07:50.812Z,45.89
2019-01-28T15:10:20.721Z,46.14
2019-01-28T15:12:49.227Z,46.27
2019-01-28T15:15:23.327Z,46.25
2019-01-28T15:17:51.821Z,46.11
2019-01-28T15:20:20.288Z,46.44
2019-01-28T15:22:51.114Z,46.71
2019-01-28T15:25:19.565Z,46.61
2019-01-28T15:27:47.968Z,46.63
2019-01-28T15:30:25.428Z,46.80
2019-01-28T15:32:54.301Z,47.09
2019-01-28T15:35:23.076Z,47.10
2019-01-28T15:37:51.507Z,47.11
2019-01-28T15:40:22.637Z,47.28
2019-01-28T15:42:51.038Z,47.49
2019-01-28T15:45:22.229Z,47.59
2019-01-28T15:47:50.690Z,47.67
2019-01-28T15:50:19.625Z,47.73
2019-01-28T15:52:48.182Z,47.71
2019-01-28T15:55:19.878Z,47.79
2019-01-28T15:57:48.342Z,47.92
2019-01-28T16:00:20.206Z,48.09
2019-01-28T16:02:48.605Z,48.22
2019-01-28T16:05:16.997Z,48.20
2019-01-28T16:07:45.647Z,48.11
2019-01-28T16:10:18.442Z,48.06
2019-01-28T16:12:47.110Z,48.13
2019-01-28T16:15:24.883Z,48.17
2019-01-28T16:17:53.346Z,48.29
2019-01-28T16:20:22.070Z,48.19
2019-01-28T16:22:51.194Z,48.16
2019-01-28T16:25:19.719Z,48.28
2019-01-28T16:27:48.121Z,48.37
2019-01-28T16:30:26.252Z,48.20
2019-01-28T16:32:52.480Z,48.19
2019-01-28T16:35:21.709Z,48.30
2019-01-28T16:37:51.571Z,48.33
2019-01-28T16:40:22.198Z,48.55
2019-01-28T16:42:50.734Z,48.77
2019-01-28T16:45:20.014Z,48.95
2019-01-28T16:47:48.410Z,49.16
2019-01-28T16:50:26.969Z,49.30
2019-01-28T16:52:52.853Z,49.54
2019-01-28T16:55:21.310Z,49.75
2019-01-28T16:57:49.946Z,49.95
2019-01-28T17:00:21.175Z,50.21
2019-01-28T17:02:49.805Z,50.61
2019-01-28T17:05:18.837Z,50.99
2019-01-28T17:07:47.326Z,51.31
2019-01-28T17:10:16.366Z,51.68
2019-01-28T17:12:44.926Z,52.10
2019-01-28T17:15:16.450Z,52.41
2019-01-28T17:17:45.371Z,52.84
2019-01-28T17:20:19.716Z,53.17
2019-01-28T17:22:48.605Z,53.67
2019-01-28T17:25:19.846Z,54.11
2019-01-28T17:27:48.228Z,54.58
2019-01-28T17:30:22.155Z,55.11
2019-01-28T17:32:50.549Z,55.70
2019-01-28T17:35:19.007Z,56.27
2019-01-28T17:37:47.466Z,56.79
2019-01-28T17:40:19.064Z,57.19
2019-01-28T17:42:47.462Z,57.58
2019-01-28T17:45:17.490Z,57.80
2019-01-28T17:47:46.021Z,58.08
2019-01-28T17:50:14.798Z,58.40
2019-01-28T17:52:43.222Z,58.58
2019-01-28T17:55:13.661Z,58.76
2019-01-28T17:57:42.127Z,58.96
2019-01-28T18:00:29.662Z,59.15
2019-01-28T18:02:58.739Z,59.34
2019-01-28T18:05:27.361Z,59.58
2019-01-28T18:07:55.982Z,59.76
2019-01-28T18:10:24.717Z,60.02
2019-01-28T18:12:53.175Z,60.26
2019-01-28T18:15:24.501Z,60.35
2019-01-28T18:17:52.908Z,60.50
2019-01-28T18:20:21.542Z,60.56
2019-01-28T18:22:50.140Z,60.67
2019-01-28T18:25:24.401Z,60.67
2019-01-28T18:27:52.795Z,60.76
2019-01-28T18:30:25.688Z,60.73
2019-01-28T18:32:54.087Z,60.79
2019-01-28T18:35:22.722Z,60.75
2019-01-28T18:37:51.147Z,60.91
2019-01-28T18:40:19.778Z,61.15
2019-01-28T18:42:48.248Z,61.33
2019-01-28T18:45:20.818Z,61.69
2019-01-28T18:47:49.654Z,62.04
2019-01-28T18:50:20.560Z,62.36
2019-01-28T18:52:50.040Z,62.70
2019-01-28T18:55:21.823Z,63.17
2019-01-28T18:57:50.153Z,63.39
2019-01-28T19:00:29.670Z,64.15
2019-01-28T19:02:57.826Z,64.81
2019-01-28T19:05:27.996Z,65.24
2019-01-28T19:08:14.407Z,65.51
2019-01-28T19:10:59.288Z,65.80
2019-01-28T19:13:31.790Z,65.83
2019-01-28T19:16:18.106Z,65.97
2019-01-28T19:18:48.208Z,66.16
2019-01-28T19:21:18.245Z,66.35
2019-01-28T19:23:46.710Z,66.73
2019-01-28T19:26:15.250Z,67.39
2019-01-28T19:28:43.646Z,67.54
2019-01-28T19:31:12.108Z,67.85
2019-01-28T19:33:40.712Z,67.89
2019-01-28T19:36:09.154Z,68.12
2019-01-28T19:38:37.554Z,68.32
2019-01-28T19:41:06.228Z,68.45
2019-01-28T19:43:34.686Z,68.69
2019-01-28T19:46:03.426Z,68.73
2019-01-28T19:48:32.186Z,68.79
2019-01-28T19:51:00.582Z,68.92
2019-01-28T19:53:28.975Z,69.12
2019-01-28T19:55:57.402Z,69.33
2019-01-28T19:58:25.800Z,69.42
2019-01-28T20:00:54.262Z,69.55
2019-01-28T20:03:22.683Z,69.69
2019-01-28T20:05:51.080Z,69.82
2019-01-28T20:08:19.634Z,69.88
2019-01-28T20:10:48.120Z,70.07
2019-01-28T20:13:16.508Z,70.21
2019-01-28T20:15:44.904Z,70.38
2019-01-28T20:18:15.045Z,70.49
2019-01-28T20:20:43.699Z,70.57
2019-01-28T20:23:12.089Z,70.62
2019-01-28T20:25:40.537Z,70.72
2019-01-28T20:28:08.940Z,70.80
2019-01-28T20:30:37.327Z,70.84
2019-01-28T20:33:06.111Z,70.99
2019-01-28T20:35:34.506Z,71.10
2019-01-28T20:38:02.943Z,71.16
2019-01-28T20:40:31.416Z,71.09
2019-01-28T20:42:59.810Z,71.19
2019-01-28T20:45:28.679Z,71.36
2019-01-28T20:47:57.383Z,71.45
2019-01-28T20:50:29.651Z,71.52
2019-01-28T20:52:58.058Z,71.63
2019-01-28T20:55:26.732Z,71.71
2019-01-28T20:57:55.168Z,71.73
2019-01-28T21:00:28.755Z,71.79
2019-01-28T21:02:58.709Z,71.91
2019-01-28T21:05:27.719Z,71.95
2019-01-28T21:07:56.558Z,71.91
2019-01-28T21:10:27.971Z,71.95
2019-01-28T21:12:56.401Z,71.98
2019-01-28T21:15:24.947Z,72.08
2019-01-28T21:17:53.508Z,72.18
2019-01-28T21:20:23.240Z,72.27
2019-01-28T21:22:52.006Z,72.19
2019-01-28T21:25:28.030Z,72.25
2019-01-28T21:27:56.527Z,72.25
2019-01-28T21:30:33.576Z,72.22
2019-01-28T21:33:02.105Z,72.26
2019-01-28T21:35:32.886Z,72.05
2019-01-28T21:38:03.034Z,72.08
2019-01-28T21:40:31.506Z,72.14
2019-01-28T21:42:59.890Z,72.20
2019-01-28T21:45:28.386Z,72.29
2019-01-28T21:47:56.827Z,72.32
2019-01-28T21:50:27.068Z,72.41
2019-01-28T21:52:55.646Z,72.43
2019-01-28T21:55:24.103Z,72.47
2019-01-28T21:57:52.490Z,72.63
2019-01-28T22:00:21.508Z,72.52
2019-01-28T22:02:49.903Z,72.39
2019-01-28T22:05:18.465Z,72.31
2019-01-28T22:07:47.068Z,72.22
2019-01-28T22:10:16.107Z,72.22
2019-01-28T22:12:44.580Z,72.10
2019-01-28T22:15:18.147Z,72.04
2019-01-28T22:17:46.512Z,71.95
2019-01-28T22:20:15.745Z,71.83
2019-01-28T22:22:44.407Z,71.73
2019-01-28T22:25:17.285Z,71.58
2019-01-28T22:27:45.744Z,71.48
2019-01-28T22:30:20.270Z,71.35
2019-01-28T22:32:48.827Z,71.27
2019-01-28T22:35:17.558Z,71.25
2019-01-28T22:37:45.975Z,71.24
2019-01-28T22:40:16.505Z,71.29
2019-01-28T22:42:44.891Z,71.25
2019-01-28T22:45:18.187Z,71.19
2019-01-28T22:47:46.646Z,71.17
2019-01-28T22:50:17.519Z,71.19
2019-01-28T22:52:46.330Z,71.22
2019-01-28T22:55:20.514Z,71.29
2019-01-28T22:57:48.977Z,71.31
2019-01-28T23:00:36.976Z,71.30
2019-01-28T23:03:06.061Z,71.36
2019-01-28T23:05:34.614Z,71.31
2019-01-28T23:08:03.030Z,71.43
2019-01-28T23:10:31.597Z,71.38
2019-01-28T23:12:59.991Z,71.38
2019-01-28T23:15:28.668Z,71.42
2019-01-28T23:17:57.059Z,71.54
2019-01-28T23:20:25.454Z,71.59
2019-01-28T23:22:54.000Z,71.64
2019-01-28T23:25:22.389Z,71.64
2019-01-28T23:27:50.779Z,71.67
2019-01-28T23:30:19.344Z,71.74
2019-01-28T23:32:47.879Z,71.84
2019-01-28T23:35:16.269Z,71.90
2019-01-28T23:37:44.696Z,71.92
2019-01-28T23:40:13.257Z,71.98
2019-01-28T23:42:41.958Z,72.06
2019-01-28T23:45:12.882Z,72.31
2019-01-28T23:47:41.277Z,72.34
2019-01-28T23:50:14.464Z,72.41
2019-01-28T23:52:42.888Z,72.47
2019-01-28T23:55:11.713Z,72.52
2019-01-28T23:57:40.104Z,72.55
